Casper, WY (82601)

6:44 PM MST on February 13, 2016 (GMT -0700)
Casper Mountain Foothills | | Change Station
CLOSE
Current Station
Personal Weather Station
Location: Casper, WY
Elevation: 5334 ft
Nearby Weather Stations

Elev 5334 ft 42.83 °N, 106.31 °W | Updated 4 minutes ago

Overcast
Overcast
35.0 °F
Feels Like 31 °F
N
5.0
Wind Variable Wind from WSW
Gusts 7.0 mph

Today
High -- | Low -- °F
--% Chance of Precip.
Yesterday
High -- | Low -- °F
Precip. -- in
Pressure 30.06 in
Visibility 10.0 miles
Clouds Few 2800 ft
Mostly Cloudy 6000 ft
Overcast 7000 ft
Windchill 31 °F
Dew Point 25 °F
Humidity 67%
Rainfall 0.00 in
Snow Depth Not available.
7:05 AM 5:33 PM
Waxing Crescent, 36% visible
METAR KCPR 140053Z 31014G22KT 10SM FEW028 BKN060 OVC070 01/M03 A3004 RMK AO2 SLP178 T00111033
Pressure 30.06 in
Visibility 10.0 miles
Clouds Few 2800 ft
Mostly Cloudy 6000 ft
Overcast 7000 ft
Windchill 31 °F
Dew Point 25 °F
Humidity 67%
Rainfall 0.00 in
Snow Depth Not available.
7:05 AM 5:33 PM
Waxing Crescent, 36% visible
METAR KCPR 140053Z 31014G22KT 10SM FEW028 BKN060 OVC070 01/M03 A3004 RMK AO2 SLP178 T00111033

10-Day Weather Forecast

Almanac

Astronomy

Feb. 13, 2016 Rise Set
Actual Time
Civil Twilight
Nautical Twilight
Astronomical Twilight
Moon
Length of Visible Light
Length of Day
Tomorrow will be .
, % of the Moon is Illuminated

Today's Extremes

State Highs State Lows

Community

WunderPhotos

Upload Photos

1,892,722 photos uploaded!

WunderBlog® & News

Nearby

Air Quality

  Air Quality AQ Index Pollutant
Not available.

Snow Depth

Station Depth Elevation

Earthquake Activity

City Distance Mag. Time & Date
Minimum magnitude displayed is 2.5.

Coastal Water Temperatures

Place Temperature

Stations

Nearby Weather Stations

Station Location Temp. Windchill Dew Point Humidity Wind Precip. Elev Updated Type
                   

Watches & Warnings

There are currently no watches in effect.